Cotonou, Benin
Current Conditions -  °F | °C
As of 9:00 AM on Thursday 27 Nov 2014 (Local Time) from DBBB Reporting Station
Few Clouds Few Clouds  
Wind Chill: 82°   Ceiling: Unl
Heat Index: 94°   Visibility: 4mi
Dew Point: 81°   Wind: 3mph
Humidity: 94%   Direction: NA
Pressure: 29.85"   Gusts: NA
Location:  6.36°N, 2.44°E
Report Text: DBBB 270800Z VRB03KT 6000 FEW012 28/27 Q1011 NOSIG
Loading
Personal Weather Stations






























Interactive Weather Map New forecast layout! Learn more

10-Day Weather Forecast

Advertisements
Track Severe Weather on mobile